sensor_id;sensor_type;location;lat;lon;timestamp;P1;durP1;ratioP1;P2;durP2;ratioP2
22230;SDS011;11284;48.086;-1.652;2023-01-10T00:00:45;13.38;;;3.90;;
22230;SDS011;11284;48.086;-1.652;2023-01-10T00:03:11;15.98;;;4.32;;
22230;SDS011;11284;48.086;-1.652;2023-01-10T00:05:38;14.05;;;4.32;;
22230;SDS011;11284;48.086;-1.652;2023-01-10T00:08:04;15.10;;;4.47;;
22230;SDS011;11284;48.086;-1.652;2023-01-10T00:10:31;16.00;;;4.82;;
22230;SDS011;11284;48.086;-1.652;2023-01-10T00:12:57;13.98;;;4.38;;
22230;SDS011;11284;48.086;-1.652;2023-01-10T00:15:42;14.13;;;4.40;;
22230;SDS011;11284;48.086;-1.652;2023-01-10T00:18:08;12.32;;;4.22;;
22230;SDS011;11284;48.086;-1.652;2023-01-10T00:20:34;13.93;;;4.22;;
22230;SDS011;11284;48.086;-1.652;2023-01-10T00:23:00;15.43;;;4.15;;
22230;SDS011;11284;48.086;-1.652;2023-01-10T00:25:27;14.38;;;4.47;;
22230;SDS011;11284;48.086;-1.652;2023-01-10T00:27:54;13.30;;;4.15;;
22230;SDS011;11284;48.086;-1.652;2023-01-10T00:30:39;12.85;;;4.10;;
22230;SDS011;11284;48.086;-1.652;2023-01-10T00:33:06;13.05;;;3.75;;
22230;SDS011;11284;48.086;-1.652;2023-01-10T00:35:32;15.95;;;4.32;;
22230;SDS011;11284;48.086;-1.652;2023-01-10T00:37:58;13.07;;;4.13;;
22230;SDS011;11284;48.086;-1.652;2023-01-10T00:40:31;14.73;;;4.45;;
22230;SDS011;11284;48.086;-1.652;2023-01-10T00:42:58;17.27;;;4.00;;
22230;SDS011;11284;48.086;-1.652;2023-01-10T00:45:43;13.45;;;3.78;;
22230;SDS011;11284;48.086;-1.652;2023-01-10T00:48:10;14.90;;;3.60;;
22230;SDS011;11284;48.086;-1.652;2023-01-10T00:50:36;16.00;;;3.72;;
22230;SDS011;11284;48.086;-1.652;2023-01-10T00:53:03;13.98;;;4.00;;
22230;SDS011;11284;48.086;-1.652;2023-01-10T00:55:29;13.82;;;3.72;;
22230;SDS011;11284;48.086;-1.652;2023-01-10T00:57:55;11.60;;;3.58;;
22230;SDS011;11284;48.086;-1.652;2023-01-10T01:00:21;11.43;;;3.25;;
22230;SDS011;11284;48.086;-1.652;2023-01-10T01:02:47;13.95;;;3.22;;
22230;SDS011;11284;48.086;-1.652;2023-01-10T01:05:15;16.15;;;4.05;;
22230;SDS011;11284;48.086;-1.652;2023-01-10T01:07:41;14.40;;;3.20;;
22230;SDS011;11284;48.086;-1.652;2023-01-10T01:10:07;15.85;;;3.00;;
22230;SDS011;11284;48.086;-1.652;2023-01-10T01:12:53;12.27;;;3.58;;
22230;SDS011;11284;48.086;-1.652;2023-01-10T01:15:19;16.02;;;3.75;;
22230;SDS011;11284;48.086;-1.652;2023-01-10T01:17:45;11.55;;;3.42;;
22230;SDS011;11284;48.086;-1.652;2023-01-10T01:20:12;12.38;;;3.05;;
22230;SDS011;11284;48.086;-1.652;2023-01-10T01:22:38;12.43;;;3.30;;
22230;SDS011;11284;48.086;-1.652;2023-01-10T01:25:04;15.38;;;3.70;;
22230;SDS011;11284;48.086;-1.652;2023-01-10T01:27:30;13.38;;;2.90;;
22230;SDS011;11284;48.086;-1.652;2023-01-10T01:29:57;15.10;;;4.45;;
22230;SDS011;11284;48.086;-1.652;2023-01-10T01:32:23;15.82;;;3.83;;
22230;SDS011;11284;48.086;-1.652;2023-01-10T01:34:49;11.20;;;3.25;;
22230;SDS011;11284;48.086;-1.652;2023-01-10T01:37:15;15.77;;;4.05;;
22230;SDS011;11284;48.086;-1.652;2023-01-10T01:39:43;13.25;;;3.67;;
22230;SDS011;11284;48.086;-1.652;2023-01-10T01:42:52;16.67;;;4.03;;
22230;SDS011;11284;48.086;-1.652;2023-01-10T01:53:00;15.35;;;3.88;;
22230;SDS011;11284;48.086;-1.652;2023-01-10T01:55:27;17.35;;;3.80;;
22230;SDS011;11284;48.086;-1.652;2023-01-10T01:57:54;12.65;;;3.30;;
22230;SDS011;11284;48.086;-1.652;2023-01-10T02:00:22;17.15;;;4.03;;
22230;SDS011;11284;48.086;-1.652;2023-01-10T02:02:50;14.45;;;3.70;;
22230;SDS011;11284;48.086;-1.652;2023-01-10T02:05:16;12.75;;;3.33;;
22230;SDS011;11284;48.086;-1.652;2023-01-10T02:07:44;13.73;;;3.30;;
22230;SDS011;11284;48.086;-1.652;2023-01-10T02:12:56;15.35;;;4.47;;
22230;SDS011;11284;48.086;-1.652;2023-01-10T02:15:24;15.45;;;4.00;;
22230;SDS011;11284;48.086;-1.652;2023-01-10T02:17:51;19.50;;;3.53;;
22230;SDS011;11284;48.086;-1.652;2023-01-10T02:20:18;17.58;;;3.90;;
22230;SDS011;11284;48.086;-1.652;2023-01-10T02:25:15;11.52;;;3.42;;
22230;SDS011;11284;48.086;-1.652;2023-01-10T02:27:53;16.20;;;3.55;;
22230;SDS011;11284;48.086;-1.652;2023-01-10T02:30:34;14.65;;;3.58;;
22230;SDS011;11284;48.086;-1.652;2023-01-10T02:38:16;16.23;;;3.95;;
22230;SDS011;11284;48.086;-1.652;2023-01-10T02:43:40;15.55;;;3.58;;
22230;SDS011;11284;48.086;-1.652;2023-01-10T02:46:08;13.45;;;3.50;;
22230;SDS011;11284;48.086;-1.652;2023-01-10T02:48:35;20.77;;;4.03;;
22230;SDS011;11284;48.086;-1.652;2023-01-10T02:53:53;14.82;;;3.35;;
22230;SDS011;11284;48.086;-1.652;2023-01-10T03:09:44;15.85;;;3.35;;
22230;SDS011;11284;48.086;-1.652;2023-01-10T03:12:22;13.32;;;3.60;;
22230;SDS011;11284;48.086;-1.652;2023-01-10T03:14:50;16.55;;;3.80;;
22230;SDS011;11284;48.086;-1.652;2023-01-10T03:17:17;18.40;;;4.07;;
22230;SDS011;11284;48.086;-1.652;2023-01-10T03:19:46;18.08;;;3.50;;
22230;SDS011;11284;48.086;-1.652;2023-01-10T03:22:14;14.50;;;3.70;;
22230;SDS011;11284;48.086;-1.652;2023-01-10T03:24:47;16.70;;;3.65;;
22230;SDS011;11284;48.086;-1.652;2023-01-10T03:28:01;17.50;;;3.60;;
22230;SDS011;11284;48.086;-1.652;2023-01-10T03:30:02;15.45;;;4.32;;
22230;SDS011;11284;48.086;-1.652;2023-01-10T03:32:30;15.77;;;3.78;;
22230;SDS011;11284;48.086;-1.652;2023-01-10T03:34:57;14.90;;;3.40;;
22230;SDS011;11284;48.086;-1.652;2023-01-10T03:42:54;16.67;;;3.22;;
22230;SDS011;11284;48.086;-1.652;2023-01-10T03:45:41;17.52;;;4.03;;
22230;SDS011;11284;48.086;-1.652;2023-01-10T03:48:07;19.55;;;4.60;;
22230;SDS011;11284;48.086;-1.652;2023-01-10T03:50:34;20.98;;;3.80;;
22230;SDS011;11284;48.086;-1.652;2023-01-10T03:53:02;14.85;;;3.80;;
22230;SDS011;11284;48.086;-1.652;2023-01-10T03:55:28;21.02;;;4.00;;
22230;SDS011;11284;48.086;-1.652;2023-01-10T03:57:54;18.02;;;4.03;;
22230;SDS011;11284;48.086;-1.652;2023-01-10T04:00:21;13.80;;;3.60;;
22230;SDS011;11284;48.086;-1.652;2023-01-10T04:02:48;22.30;;;4.30;;
22230;SDS011;11284;48.086;-1.652;2023-01-10T04:05:14;18.33;;;3.95;;
22230;SDS011;11284;48.086;-1.652;2023-01-10T04:07:40;15.55;;;3.67;;
22230;SDS011;11284;48.086;-1.652;2023-01-10T04:10:07;19.27;;;4.30;;
22230;SDS011;11284;48.086;-1.652;2023-01-10T04:12:33;18.52;;;4.57;;
22230;SDS011;11284;48.086;-1.652;2023-01-10T04:14:59;16.02;;;4.57;;
22230;SDS011;11284;48.086;-1.652;2023-01-10T04:17:25;18.80;;;4.22;;
22230;SDS011;11284;48.086;-1.652;2023-01-10T04:19:51;18.20;;;3.97;;
22230;SDS011;11284;48.086;-1.652;2023-01-10T04:22:19;17.30;;;3.72;;
22230;SDS011;11284;48.086;-1.652;2023-01-10T04:24:44;18.52;;;3.95;;
22230;SDS011;11284;48.086;-1.652;2023-01-10T04:27:12;18.48;;;3.70;;
22230;SDS011;11284;48.086;-1.652;2023-01-10T04:29:38;19.48;;;4.35;;
22230;SDS011;11284;48.086;-1.652;2023-01-10T04:32:04;20.15;;;4.18;;
22230;SDS011;11284;48.086;-1.652;2023-01-10T04:34:30;17.50;;;3.40;;
22230;SDS011;11284;48.086;-1.652;2023-01-10T04:36:56;15.93;;;4.00;;
22230;SDS011;11284;48.086;-1.652;2023-01-10T04:39:22;18.50;;;3.92;;
22230;SDS011;11284;48.086;-1.652;2023-01-10T04:41:48;24.52;;;4.35;;
22230;SDS011;11284;48.086;-1.652;2023-01-10T04:44:14;21.35;;;4.35;;
22230;SDS011;11284;48.086;-1.652;2023-01-10T04:46:40;19.63;;;3.92;;
22230;SDS011;11284;48.086;-1.652;2023-01-10T04:49:08;18.00;;;4.07;;
22230;SDS011;11284;48.086;-1.652;2023-01-10T04:51:34;18.33;;;4.18;;
22230;SDS011;11284;48.086;-1.652;2023-01-10T04:54:00;15.57;;;3.95;;
22230;SDS011;11284;48.086;-1.652;2023-01-10T04:56:26;19.42;;;3.70;;
22230;SDS011;11284;48.086;-1.652;2023-01-10T04:58:52;19.73;;;4.07;;
22230;SDS011;11284;48.086;-1.652;2023-01-10T05:01:19;19.50;;;4.07;;
22230;SDS011;11284;48.086;-1.652;2023-01-10T05:03:46;16.23;;;3.63;;
22230;SDS011;11284;48.086;-1.652;2023-01-10T05:06:13;20.15;;;3.97;;
22230;SDS011;11284;48.086;-1.652;2023-01-10T05:08:38;18.25;;;3.83;;
22230;SDS011;11284;48.086;-1.652;2023-01-10T05:11:04;23.13;;;4.60;;
22230;SDS011;11284;48.086;-1.652;2023-01-10T05:13:30;19.65;;;3.97;;
22230;SDS011;11284;48.086;-1.652;2023-01-10T05:15:57;14.68;;;4.00;;
22230;SDS011;11284;48.086;-1.652;2023-01-10T05:18:24;14.63;;;3.58;;
22230;SDS011;11284;48.086;-1.652;2023-01-10T05:20:50;16.70;;;3.90;;
22230;SDS011;11284;48.086;-1.652;2023-01-10T05:23:16;20.05;;;4.13;;
22230;SDS011;11284;48.086;-1.652;2023-01-10T05:25:42;18.98;;;4.35;;
22230;SDS011;11284;48.086;-1.652;2023-01-10T05:28:08;14.82;;;3.53;;
22230;SDS011;11284;48.086;-1.652;2023-01-10T05:30:35;18.25;;;3.90;;
22230;SDS011;11284;48.086;-1.652;2023-01-10T05:33:02;18.17;;;3.20;;
22230;SDS011;11284;48.086;-1.652;2023-01-10T05:35:28;16.35;;;3.20;;
22230;SDS011;11284;48.086;-1.652;2023-01-10T05:37:54;13.85;;;3.28;;
22230;SDS011;11284;48.086;-1.652;2023-01-10T05:40:20;13.68;;;3.10;;
22230;SDS011;11284;48.086;-1.652;2023-01-10T05:42:46;16.13;;;3.60;;
22230;SDS011;11284;48.086;-1.652;2023-01-10T05:45:12;17.65;;;3.25;;
22230;SDS011;11284;48.086;-1.652;2023-01-10T05:47:38;14.70;;;3.58;;
22230;SDS011;11284;48.086;-1.652;2023-01-10T05:50:05;15.73;;;3.08;;
22230;SDS011;11284;48.086;-1.652;2023-01-10T05:52:31;16.33;;;3.35;;
22230;SDS011;11284;48.086;-1.652;2023-01-10T05:54:57;12.75;;;3.33;;
22230;SDS011;11284;48.086;-1.652;2023-01-10T05:57:23;13.95;;;2.95;;
22230;SDS011;11284;48.086;-1.652;2023-01-10T05:59:49;11.75;;;3.13;;
22230;SDS011;11284;48.086;-1.652;2023-01-10T06:02:15;12.80;;;3.60;;
22230;SDS011;11284;48.086;-1.652;2023-01-10T06:04:41;16.38;;;3.25;;
22230;SDS011;11284;48.086;-1.652;2023-01-10T06:07:07;16.88;;;3.90;;
22230;SDS011;11284;48.086;-1.652;2023-01-10T06:09:34;11.63;;;2.80;;
22230;SDS011;11284;48.086;-1.652;2023-01-10T06:12:00;11.27;;;2.75;;
22230;SDS011;11284;48.086;-1.652;2023-01-10T06:14:26;15.02;;;3.20;;
22230;SDS011;11284;48.086;-1.652;2023-01-10T06:16:52;12.05;;;3.53;;
22230;SDS011;11284;48.086;-1.652;2023-01-10T06:19:18;11.63;;;2.97;;
22230;SDS011;11284;48.086;-1.652;2023-01-10T06:21:44;14.90;;;3.22;;
22230;SDS011;11284;48.086;-1.652;2023-01-10T06:24:10;13.38;;;3.00;;
22230;SDS011;11284;48.086;-1.652;2023-01-10T06:26:36;10.93;;;2.75;;
22230;SDS011;11284;48.086;-1.652;2023-01-10T06:29:02;13.18;;;2.63;;
22230;SDS011;11284;48.086;-1.652;2023-01-10T06:31:28;11.70;;;2.30;;
22230;SDS011;11284;48.086;-1.652;2023-01-10T06:33:54;11.90;;;2.70;;
22230;SDS011;11284;48.086;-1.652;2023-01-10T06:36:20;9.82;;;2.17;;
22230;SDS011;11284;48.086;-1.652;2023-01-10T06:38:46;9.35;;;2.20;;
22230;SDS011;11284;48.086;-1.652;2023-01-10T06:41:12;7.63;;;2.50;;
22230;SDS011;11284;48.086;-1.652;2023-01-10T06:43:41;7.28;;;1.92;;
22230;SDS011;11284;48.086;-1.652;2023-01-10T06:46:09;8.10;;;2.10;;
22230;SDS011;11284;48.086;-1.652;2023-01-10T06:48:36;7.15;;;1.88;;
22230;SDS011;11284;48.086;-1.652;2023-01-10T06:51:03;8.55;;;1.80;;
22230;SDS011;11284;48.086;-1.652;2023-01-10T06:53:29;7.38;;;1.60;;
22230;SDS011;11284;48.086;-1.652;2023-01-10T06:55:55;8.43;;;2.00;;
22230;SDS011;11284;48.086;-1.652;2023-01-10T06:58:21;6.63;;;1.98;;
22230;SDS011;11284;48.086;-1.652;2023-01-10T07:00:48;7.47;;;2.70;;
22230;SDS011;11284;48.086;-1.652;2023-01-10T07:03:14;5.82;;;1.52;;
22230;SDS011;11284;48.086;-1.652;2023-01-10T07:05:40;4.50;;;1.27;;
22230;SDS011;11284;48.086;-1.652;2023-01-10T07:08:06;6.90;;;1.60;;
22230;SDS011;11284;48.086;-1.652;2023-01-10T07:10:32;5.28;;;1.13;;
22230;SDS011;11284;48.086;-1.652;2023-01-10T07:12:58;5.43;;;2.08;;
22230;SDS011;11284;48.086;-1.652;2023-01-10T07:15:24;5.97;;;1.45;;
22230;SDS011;11284;48.086;-1.652;2023-01-10T07:17:50;5.97;;;1.77;;
22230;SDS011;11284;48.086;-1.652;2023-01-10T07:20:17;8.95;;;1.75;;
22230;SDS011;11284;48.086;-1.652;2023-01-10T07:22:43;4.43;;;1.17;;
22230;SDS011;11284;48.086;-1.652;2023-01-10T07:25:09;4.70;;;1.20;;
22230;SDS011;11284;48.086;-1.652;2023-01-10T07:27:35;5.53;;;1.30;;
22230;SDS011;11284;48.086;-1.652;2023-01-10T07:30:01;3.75;;;1.17;;
22230;SDS011;11284;48.086;-1.652;2023-01-10T07:32:27;4.45;;;1.23;;
22230;SDS011;11284;48.086;-1.652;2023-01-10T07:34:53;4.10;;;1.33;;
22230;SDS011;11284;48.086;-1.652;2023-01-10T07:37:19;5.18;;;1.50;;
22230;SDS011;11284;48.086;-1.652;2023-01-10T07:39:45;5.30;;;1.38;;
22230;SDS011;11284;48.086;-1.652;2023-01-10T07:42:12;5.45;;;1.35;;
22230;SDS011;11284;48.086;-1.652;2023-01-10T07:44:38;4.38;;;1.50;;
22230;SDS011;11284;48.086;-1.652;2023-01-10T07:47:04;4.57;;;1.20;;
22230;SDS011;11284;48.086;-1.652;2023-01-10T07:49:30;4.47;;;1.33;;
22230;SDS011;11284;48.086;-1.652;2023-01-10T07:51:56;4.53;;;1.10;;
22230;SDS011;11284;48.086;-1.652;2023-01-10T07:54:22;4.30;;;1.40;;
22230;SDS011;11284;48.086;-1.652;2023-01-10T07:56:48;3.88;;;1.27;;
22230;SDS011;11284;48.086;-1.652;2023-01-10T07:59:15;5.22;;;1.50;;
22230;SDS011;11284;48.086;-1.652;2023-01-10T08:01:41;4.70;;;1.58;;
22230;SDS011;11284;48.086;-1.652;2023-01-10T08:04:07;3.83;;;1.40;;
22230;SDS011;11284;48.086;-1.652;2023-01-10T08:06:33;2.90;;;1.02;;
22230;SDS011;11284;48.086;-1.652;2023-01-10T08:08:59;3.55;;;1.10;;
22230;SDS011;11284;48.086;-1.652;2023-01-10T08:11:29;3.83;;;1.42;;
22230;SDS011;11284;48.086;-1.652;2023-01-10T08:13:55;5.50;;;1.45;;
22230;SDS011;11284;48.086;-1.652;2023-01-10T08:16:21;4.38;;;1.60;;
22230;SDS011;11284;48.086;-1.652;2023-01-10T08:18:47;3.28;;;1.27;;
22230;SDS011;11284;48.086;-1.652;2023-01-10T08:21:13;4.60;;;1.58;;
22230;SDS011;11284;48.086;-1.652;2023-01-10T08:23:39;3.42;;;1.60;;
22230;SDS011;11284;48.086;-1.652;2023-01-10T08:26:05;4.82;;;1.38;;
22230;SDS011;11284;48.086;-1.652;2023-01-10T08:28:31;3.53;;;1.35;;
22230;SDS011;11284;48.086;-1.652;2023-01-10T08:30:57;4.47;;;1.63;;
22230;SDS011;11284;48.086;-1.652;2023-01-10T08:33:23;5.60;;;1.77;;
22230;SDS011;11284;48.086;-1.652;2023-01-10T08:35:51;4.82;;;1.70;;
22230;SDS011;11284;48.086;-1.652;2023-01-10T08:38:17;4.85;;;1.80;;
22230;SDS011;11284;48.086;-1.652;2023-01-10T08:40:43;4.47;;;1.83;;
22230;SDS011;11284;48.086;-1.652;2023-01-10T08:43:10;5.55;;;1.92;;
22230;SDS011;11284;48.086;-1.652;2023-01-10T08:45:36;6.47;;;1.80;;
22230;SDS011;11284;48.086;-1.652;2023-01-10T08:48:03;8.18;;;2.13;;
22230;SDS011;11284;48.086;-1.652;2023-01-10T08:50:29;6.15;;;2.33;;
22230;SDS011;11284;48.086;-1.652;2023-01-10T08:52:58;5.47;;;1.95;;
22230;SDS011;11284;48.086;-1.652;2023-01-10T08:55:25;7.78;;;2.65;;
22230;SDS011;11284;48.086;-1.652;2023-01-10T08:57:51;6.40;;;2.33;;
22230;SDS011;11284;48.086;-1.652;2023-01-10T09:00:18;9.40;;;2.80;;
22230;SDS011;11284;48.086;-1.652;2023-01-10T09:02:44;6.18;;;2.67;;
22230;SDS011;11284;48.086;-1.652;2023-01-10T09:05:10;7.80;;;2.70;;
22230;SDS011;11284;48.086;-1.652;2023-01-10T09:07:36;7.10;;;2.83;;
22230;SDS011;11284;48.086;-1.652;2023-01-10T09:10:05;7.75;;;2.70;;
22230;SDS011;11284;48.086;-1.652;2023-01-10T09:12:31;11.60;;;3.08;;
22230;SDS011;11284;48.086;-1.652;2023-01-10T09:15:16;9.65;;;2.92;;
22230;SDS011;11284;48.086;-1.652;2023-01-10T09:17:42;6.97;;;2.70;;
22230;SDS011;11284;48.086;-1.652;2023-01-10T09:20:08;10.57;;;3.30;;
22230;SDS011;11284;48.086;-1.652;2023-01-10T09:22:36;10.38;;;3.78;;
22230;SDS011;11284;48.086;-1.652;2023-01-10T09:25:02;10.88;;;2.90;;
22230;SDS011;11284;48.086;-1.652;2023-01-10T09:27:29;10.00;;;3.35;;
22230;SDS011;11284;48.086;-1.652;2023-01-10T09:29:55;12.75;;;3.85;;
22230;SDS011;11284;48.086;-1.652;2023-01-10T09:32:21;13.18;;;4.03;;
22230;SDS011;11284;48.086;-1.652;2023-01-10T09:34:48;12.65;;;3.90;;
22230;SDS011;11284;48.086;-1.652;2023-01-10T09:37:14;16.60;;;3.75;;
22230;SDS011;11284;48.086;-1.652;2023-01-10T09:39:40;12.45;;;3.97;;
22230;SDS011;11284;48.086;-1.652;2023-01-10T09:44:38;9.93;;;3.50;;
22230;SDS011;11284;48.086;-1.652;2023-01-10T09:51:59;16.20;;;4.60;;
22230;SDS011;11284;48.086;-1.652;2023-01-10T09:54:33;16.42;;;4.70;;
22230;SDS011;11284;48.086;-1.652;2023-01-10T09:57:01;14.00;;;4.38;;
22230;SDS011;11284;48.086;-1.652;2023-01-10T09:59:36;16.23;;;4.30;;
22230;SDS011;11284;48.086;-1.652;2023-01-10T10:04:39;17.85;;;4.88;;
22230;SDS011;11284;48.086;-1.652;2023-01-10T10:07:10;16.83;;;4.30;;
22230;SDS011;11284;48.086;-1.652;2023-01-10T10:09:37;16.77;;;4.22;;
22230;SDS011;11284;48.086;-1.652;2023-01-10T10:12:18;19.52;;;4.13;;
22230;SDS011;11284;48.086;-1.652;2023-01-10T10:22:23;28.50;;;4.97;;
22230;SDS011;11284;48.086;-1.652;2023-01-10T10:27:28;25.35;;;5.00;;
22230;SDS011;11284;48.086;-1.652;2023-01-10T10:39:47;28.83;;;5.07;;
22230;SDS011;11284;48.086;-1.652;2023-01-10T10:42:16;30.73;;;5.20;;
22230;SDS011;11284;48.086;-1.652;2023-01-10T10:44:44;28.80;;;5.20;;
22230;SDS011;11284;48.086;-1.652;2023-01-10T10:47:16;24.55;;;4.43;;
22230;SDS011;11284;48.086;-1.652;2023-01-10T10:49:49;27.33;;;5.03;;
22230;SDS011;11284;48.086;-1.652;2023-01-10T10:54:50;28.23;;;5.07;;
22230;SDS011;11284;48.086;-1.652;2023-01-10T10:57:16;21.23;;;4.90;;
22230;SDS011;11284;48.086;-1.652;2023-01-10T10:59:44;25.88;;;5.30;;
22230;SDS011;11284;48.086;-1.652;2023-01-10T11:02:22;27.33;;;5.20;;
22230;SDS011;11284;48.086;-1.652;2023-01-10T11:04:49;29.60;;;5.68;;
22230;SDS011;11284;48.086;-1.652;2023-01-10T11:07:15;32.40;;;5.82;;
22230;SDS011;11284;48.086;-1.652;2023-01-10T11:09:42;32.13;;;5.53;;
22230;SDS011;11284;48.086;-1.652;2023-01-10T11:12:30;27.52;;;4.75;;
22230;SDS011;11284;48.086;-1.652;2023-01-10T11:14:57;28.70;;;5.90;;
22230;SDS011;11284;48.086;-1.652;2023-01-10T11:22:21;29.98;;;4.97;;
22230;SDS011;11284;48.086;-1.652;2023-01-10T11:24:52;29.08;;;5.28;;
22230;SDS011;11284;48.086;-1.652;2023-01-10T11:27:21;29.73;;;5.20;;
22230;SDS011;11284;48.086;-1.652;2023-01-10T11:29:49;30.85;;;5.57;;
22230;SDS011;11284;48.086;-1.652;2023-01-10T11:32:16;28.45;;;5.22;;
22230;SDS011;11284;48.086;-1.652;2023-01-10T11:34:48;29.25;;;5.65;;
22230;SDS011;11284;48.086;-1.652;2023-01-10T11:37:21;24.88;;;6.38;;
22230;SDS011;11284;48.086;-1.652;2023-01-10T11:40:06;33.17;;;5.63;;
22230;SDS011;11284;48.086;-1.652;2023-01-10T11:50:17;34.42;;;6.15;;
22230;SDS011;11284;48.086;-1.652;2023-01-10T11:52:44;25.98;;;5.47;;
22230;SDS011;11284;48.086;-1.652;2023-01-10T11:55:16;23.95;;;5.03;;
22230;SDS011;11284;48.086;-1.652;2023-01-10T11:57:43;28.35;;;5.30;;
22230;SDS011;11284;48.086;-1.652;2023-01-10T12:00:09;30.42;;;5.82;;
22230;SDS011;11284;48.086;-1.652;2023-01-10T12:02:39;23.40;;;4.80;;
22230;SDS011;11284;48.086;-1.652;2023-01-10T12:05:06;29.13;;;5.10;;
22230;SDS011;11284;48.086;-1.652;2023-01-10T12:10:19;27.95;;;5.53;;
22230;SDS011;11284;48.086;-1.652;2023-01-10T12:12:55;35.95;;;5.47;;
22230;SDS011;11284;48.086;-1.652;2023-01-10T12:15:29;33.63;;;5.45;;
22230;SDS011;11284;48.086;-1.652;2023-01-10T12:17:56;31.85;;;5.88;;
22230;SDS011;11284;48.086;-1.652;2023-01-10T12:20:27;29.85;;;5.72;;
22230;SDS011;11284;48.086;-1.652;2023-01-10T12:22:58;23.17;;;4.70;;
22230;SDS011;11284;48.086;-1.652;2023-01-10T12:27:57;26.95;;;5.13;;
22230;SDS011;11284;48.086;-1.652;2023-01-10T12:30:36;27.23;;;4.95;;
22230;SDS011;11284;48.086;-1.652;2023-01-10T12:35:40;21.65;;;4.95;;
22230;SDS011;11284;48.086;-1.652;2023-01-10T12:41:12;23.25;;;4.93;;
22230;SDS011;11284;48.086;-1.652;2023-01-10T12:44:00;25.58;;;4.82;;
22230;SDS011;11284;48.086;-1.652;2023-01-10T12:46:43;24.38;;;4.43;;
22230;SDS011;11284;48.086;-1.652;2023-01-10T12:49:24;27.40;;;4.78;;
22230;SDS011;11284;48.086;-1.652;2023-01-10T12:51:51;24.00;;;5.15;;
22230;SDS011;11284;48.086;-1.652;2023-01-10T12:54:19;24.83;;;4.78;;
22230;SDS011;11284;48.086;-1.652;2023-01-10T12:56:45;23.20;;;4.82;;
22230;SDS011;11284;48.086;-1.652;2023-01-10T12:59:31;25.23;;;4.82;;
22230;SDS011;11284;48.086;-1.652;2023-01-10T13:02:02;20.50;;;3.88;;
22230;SDS011;11284;48.086;-1.652;2023-01-10T13:04:29;23.13;;;3.88;;
22230;SDS011;11284;48.086;-1.652;2023-01-10T13:06:56;24.55;;;4.35;;
22230;SDS011;11284;48.086;-1.652;2023-01-10T13:09:23;23.90;;;4.53;;
22230;SDS011;11284;48.086;-1.652;2023-01-10T13:14:24;23.67;;;4.60;;
22230;SDS011;11284;48.086;-1.652;2023-01-10T13:16:53;25.75;;;5.30;;
22230;SDS011;11284;48.086;-1.652;2023-01-10T13:21:46;23.60;;;4.28;;
22230;SDS011;11284;48.086;-1.652;2023-01-10T13:24:23;23.52;;;4.35;;
22230;SDS011;11284;48.086;-1.652;2023-01-10T13:26:56;23.02;;;4.70;;
22230;SDS011;11284;48.086;-1.652;2023-01-10T13:29:43;21.20;;;3.83;;
22230;SDS011;11284;48.086;-1.652;2023-01-10T13:32:20;21.90;;;4.18;;
22230;SDS011;11284;48.086;-1.652;2023-01-10T13:34:47;18.45;;;3.63;;
22230;SDS011;11284;48.086;-1.652;2023-01-10T13:39:53;23.55;;;4.18;;
22230;SDS011;11284;48.086;-1.652;2023-01-10T13:52:47;18.48;;;3.95;;
22230;SDS011;11284;48.086;-1.652;2023-01-10T13:55:27;17.63;;;3.25;;
22230;SDS011;11284;48.086;-1.652;2023-01-10T13:57:54;25.83;;;4.50;;
22230;SDS011;11284;48.086;-1.652;2023-01-10T14:00:25;20.00;;;4.53;;
22230;SDS011;11284;48.086;-1.652;2023-01-10T14:05:54;20.02;;;4.00;;
22230;SDS011;11284;48.086;-1.652;2023-01-10T14:08:21;19.00;;;3.13;;
22230;SDS011;11284;48.086;-1.652;2023-01-10T14:10:47;19.40;;;3.63;;
22230;SDS011;11284;48.086;-1.652;2023-01-10T14:13:28;17.67;;;3.22;;
22230;SDS011;11284;48.086;-1.652;2023-01-10T14:15:55;14.80;;;3.30;;
22230;SDS011;11284;48.086;-1.652;2023-01-10T14:18:21;15.38;;;3.30;;
22230;SDS011;11284;48.086;-1.652;2023-01-10T14:21:02;19.45;;;4.05;;
22230;SDS011;11284;48.086;-1.652;2023-01-10T14:23:30;17.40;;;3.40;;
22230;SDS011;11284;48.086;-1.652;2023-01-10T14:25:59;16.45;;;3.53;;
22230;SDS011;11284;48.086;-1.652;2023-01-10T14:28:26;17.55;;;3.80;;
22230;SDS011;11284;48.086;-1.652;2023-01-10T14:33:22;12.15;;;3.10;;
22230;SDS011;11284;48.086;-1.652;2023-01-10T14:35:49;17.40;;;3.22;;
22230;SDS011;11284;48.086;-1.652;2023-01-10T14:38:23;20.02;;;3.25;;
22230;SDS011;11284;48.086;-1.652;2023-01-10T14:40:50;16.45;;;3.75;;
22230;SDS011;11284;48.086;-1.652;2023-01-10T14:43:22;12.38;;;2.83;;
22230;SDS011;11284;48.086;-1.652;2023-01-10T14:48:24;13.75;;;2.67;;
22230;SDS011;11284;48.086;-1.652;2023-01-10T14:50:51;12.23;;;2.65;;
22230;SDS011;11284;48.086;-1.652;2023-01-10T14:53:24;12.63;;;3.03;;
22230;SDS011;11284;48.086;-1.652;2023-01-10T14:55:50;17.92;;;3.00;;
22230;SDS011;11284;48.086;-1.652;2023-01-10T14:58:16;14.38;;;3.35;;
22230;SDS011;11284;48.086;-1.652;2023-01-10T15:00:43;21.13;;;3.95;;
22230;SDS011;11284;48.086;-1.652;2023-01-10T15:03:16;13.77;;;3.65;;
22230;SDS011;11284;48.086;-1.652;2023-01-10T15:05:50;12.23;;;2.65;;
22230;SDS011;11284;48.086;-1.652;2023-01-10T15:08:20;16.05;;;3.78;;
22230;SDS011;11284;48.086;-1.652;2023-01-10T15:10:46;16.10;;;3.40;;
22230;SDS011;11284;48.086;-1.652;2023-01-10T15:13:15;14.27;;;3.63;;
22230;SDS011;11284;48.086;-1.652;2023-01-10T15:15:42;19.27;;;4.63;;
22230;SDS011;11284;48.086;-1.652;2023-01-10T15:20:55;17.02;;;3.80;;
22230;SDS011;11284;48.086;-1.652;2023-01-10T15:23:21;13.77;;;2.90;;
22230;SDS011;11284;48.086;-1.652;2023-01-10T15:25:57;13.90;;;2.78;;
22230;SDS011;11284;48.086;-1.652;2023-01-10T15:28:25;19.02;;;3.22;;
22230;SDS011;11284;48.086;-1.652;2023-01-10T15:30:53;12.30;;;2.40;;
22230;SDS011;11284;48.086;-1.652;2023-01-10T15:33:31;10.57;;;2.40;;
22230;SDS011;11284;48.086;-1.652;2023-01-10T15:36:11;13.00;;;2.38;;
22230;SDS011;11284;48.086;-1.652;2023-01-10T15:38:42;11.70;;;2.72;;
22230;SDS011;11284;48.086;-1.652;2023-01-10T15:41:08;13.70;;;2.55;;
22230;SDS011;11284;48.086;-1.652;2023-01-10T15:43:35;10.98;;;2.70;;
22230;SDS011;11284;48.086;-1.652;2023-01-10T15:46:02;8.38;;;1.85;;
22230;SDS011;11284;48.086;-1.652;2023-01-10T15:48:35;9.27;;;1.63;;
22230;SDS011;11284;48.086;-1.652;2023-01-10T15:51:03;9.02;;;1.92;;
22230;SDS011;11284;48.086;-1.652;2023-01-10T15:53:48;12.13;;;4.53;;
22230;SDS011;11284;48.086;-1.652;2023-01-10T15:56:16;9.45;;;2.20;;
22230;SDS011;11284;48.086;-1.652;2023-01-10T15:58:44;8.75;;;1.80;;
22230;SDS011;11284;48.086;-1.652;2023-01-10T16:01:14;7.50;;;1.80;;
22230;SDS011;11284;48.086;-1.652;2023-01-10T16:03:44;8.23;;;1.50;;
22230;SDS011;11284;48.086;-1.652;2023-01-10T16:06:18;9.30;;;2.05;;
22230;SDS011;11284;48.086;-1.652;2023-01-10T16:08:47;7.63;;;1.85;;
22230;SDS011;11284;48.086;-1.652;2023-01-10T16:11:18;9.02;;;1.95;;
22230;SDS011;11284;48.086;-1.652;2023-01-10T16:14:04;9.25;;;1.77;;
22230;SDS011;11284;48.086;-1.652;2023-01-10T16:16:30;10.60;;;2.45;;
22230;SDS011;11284;48.086;-1.652;2023-01-10T16:18:56;13.90;;;2.40;;
22230;SDS011;11284;48.086;-1.652;2023-01-10T16:21:23;8.32;;;2.10;;
22230;SDS011;11284;48.086;-1.652;2023-01-10T16:23:49;12.73;;;2.63;;
22230;SDS011;11284;48.086;-1.652;2023-01-10T16:26:15;10.35;;;2.65;;
22230;SDS011;11284;48.086;-1.652;2023-01-10T16:28:42;8.93;;;2.10;;
22230;SDS011;11284;48.086;-1.652;2023-01-10T16:31:09;10.27;;;2.33;;
22230;SDS011;11284;48.086;-1.652;2023-01-10T16:33:36;11.80;;;2.40;;
22230;SDS011;11284;48.086;-1.652;2023-01-10T16:36:02;10.70;;;2.28;;
22230;SDS011;11284;48.086;-1.652;2023-01-10T16:38:29;10.93;;;1.83;;